createdAt,value
2018-07-26T00:00:33.251Z,75.00
2018-07-26T00:03:02.612Z,74.20
2018-07-26T00:05:32.820Z,73.80
2018-07-26T00:08:02.012Z,74.10
2018-07-26T00:10:31.411Z,73.70
2018-07-26T00:13:00.663Z,75.00
2018-07-26T00:15:29.983Z,74.90
2018-07-26T00:17:59.260Z,75.30
2018-07-26T00:20:28.571Z,75.20
2018-07-26T00:22:57.830Z,76.10
2018-07-26T00:25:27.198Z,76.20
2018-07-26T00:27:56.555Z,76.20
2018-07-26T00:30:25.992Z,76.60
2018-07-26T00:32:55.281Z,76.60
2018-07-26T00:35:24.665Z,76.60
2018-07-26T00:37:53.992Z,76.20
2018-07-26T00:40:23.351Z,76.40
2018-07-26T00:42:52.618Z,76.30
2018-07-26T00:45:21.861Z,76.60
2018-07-26T00:47:51.122Z,76.90
2018-07-26T00:50:20.418Z,77.40
2018-07-26T00:52:49.654Z,76.90
2018-07-26T00:55:18.860Z,77.00
2018-07-26T00:57:48.229Z,77.30
2018-07-26T01:00:17.570Z,77.40
2018-07-26T01:02:46.753Z,77.60
2018-07-26T01:05:15.929Z,77.90
2018-07-26T01:07:45.221Z,77.60
2018-07-26T01:10:14.384Z,77.50
2018-07-26T01:12:43.638Z,77.40
2018-07-26T01:15:12.908Z,77.50
2018-07-26T01:17:42.270Z,77.30
2018-07-26T01:20:11.597Z,77.40
2018-07-26T01:22:40.897Z,77.80
2018-07-26T01:25:10.181Z,78.00
2018-07-26T01:27:45.514Z,78.10
2018-07-26T01:30:14.797Z,78.30
2018-07-26T01:32:44.019Z,78.80
2018-07-26T01:35:13.100Z,78.30
2018-07-26T01:37:42.324Z,78.40
2018-07-26T01:42:50.829Z,77.90
2018-07-26T01:45:19.891Z,77.80
2018-07-26T01:47:49.038Z,78.00
2018-07-26T01:50:18.269Z,78.10
2018-07-26T01:52:47.460Z,78.00
2018-07-26T01:55:16.562Z,77.80
2018-07-26T01:57:45.711Z,78.20
2018-07-26T02:00:15.399Z,78.50
2018-07-26T02:02:44.660Z,78.60
2018-07-26T02:05:13.958Z,79.00
2018-07-26T02:07:42.937Z,78.90
2018-07-26T02:10:12.069Z,78.90
2018-07-26T02:12:41.376Z,78.40
2018-07-26T02:15:10.474Z,79.20
2018-07-26T02:17:39.699Z,78.70
2018-07-26T02:20:08.901Z,78.90
2018-07-26T02:22:38.181Z,79.50
2018-07-26T02:25:08.208Z,79.70
2018-07-26T02:27:37.831Z,79.50
2018-07-26T02:30:06.892Z,79.60
2018-07-26T02:32:36.032Z,79.30
2018-07-26T02:35:05.289Z,79.60
2018-07-26T02:37:34.295Z,79.00
2018-07-26T02:40:03.503Z,79.40
2018-07-26T02:42:32.493Z,79.40
2018-07-26T02:45:01.681Z,79.60
2018-07-26T02:47:30.874Z,79.90
2018-07-26T02:49:59.832Z,79.90
2018-07-26T02:52:28.954Z,79.70
2018-07-26T02:54:58.228Z,79.70
2018-07-26T02:57:27.426Z,80.00
2018-07-26T02:59:56.403Z,80.00
2018-07-26T03:02:25.736Z,80.00
2018-07-26T03:04:54.878Z,80.20
2018-07-26T03:07:23.919Z,80.40
2018-07-26T03:09:52.997Z,80.50
2018-07-26T03:12:22.132Z,80.50
2018-07-26T03:14:51.094Z,80.80
2018-07-26T03:17:20.059Z,81.00
2018-07-26T03:19:49.199Z,81.30
2018-07-26T03:22:24.698Z,81.50
2018-07-26T03:24:53.740Z,81.70
2018-07-26T03:27:22.897Z,81.50
2018-07-26T03:29:51.892Z,81.80
2018-07-26T03:32:20.913Z,81.90
2018-07-26T03:34:50.168Z,82.00
2018-07-26T03:37:19.208Z,82.30
2018-07-26T03:39:48.186Z,82.30
2018-07-26T03:42:17.190Z,82.60
2018-07-26T03:44:47.048Z,82.90
2018-07-26T03:47:16.040Z,82.80
2018-07-26T03:49:45.016Z,83.00
2018-07-26T03:52:14.368Z,82.90
2018-07-26T03:54:43.501Z,83.20
2018-07-26T03:57:12.499Z,83.10
2018-07-26T03:59:41.671Z,83.00
2018-07-26T04:02:11.386Z,82.80
2018-07-26T04:04:40.387Z,82.70
2018-07-26T04:07:09.642Z,82.40
2018-07-26T04:09:38.660Z,82.10
2018-07-26T04:12:07.832Z,81.90
2018-07-26T04:14:36.854Z,81.60
2018-07-26T04:17:05.859Z,81.20
2018-07-26T04:19:34.959Z,80.70
2018-07-26T04:22:04.157Z,80.60
2018-07-26T04:24:33.142Z,80.30
2018-07-26T04:27:02.359Z,79.90
2018-07-26T04:29:31.369Z,79.80
2018-07-26T04:32:00.640Z,79.40
2018-07-26T04:34:29.861Z,79.40
2018-07-26T04:36:58.960Z,79.60
2018-07-26T04:39:28.200Z,79.50
2018-07-26T04:41:57.570Z,79.70
2018-07-26T04:44:27.458Z,79.60
2018-07-26T04:46:56.454Z,79.50
2018-07-26T04:49:25.629Z,79.40
2018-07-26T04:51:54.718Z,79.10
2018-07-26T04:54:24.647Z,79.20
2018-07-26T04:56:53.936Z,79.10
2018-07-26T04:59:23.281Z,78.80
2018-07-26T05:01:52.688Z,78.80
2018-07-26T05:04:21.932Z,78.90
2018-07-26T05:06:51.318Z,78.70
2018-07-26T05:09:20.736Z,78.60
2018-07-26T05:11:49.950Z,78.70
2018-07-26T05:14:19.151Z,78.30
2018-07-26T05:16:48.472Z,78.50
2018-07-26T05:19:17.844Z,78.70
2018-07-26T05:21:47.016Z,78.90
2018-07-26T05:24:16.523Z,78.60
2018-07-26T05:26:45.932Z,78.80
2018-07-26T05:29:15.349Z,78.50
2018-07-26T05:31:44.716Z,78.90
2018-07-26T05:34:13.874Z,78.70
2018-07-26T05:36:43.172Z,78.80
2018-07-26T05:39:12.720Z,78.40
2018-07-26T05:41:42.256Z,78.30
2018-07-26T05:44:11.495Z,77.90
2018-07-26T05:46:40.624Z,77.80
2018-07-26T05:49:09.880Z,77.20
2018-07-26T05:51:39.108Z,77.40
2018-07-26T05:54:08.717Z,77.50
2018-07-26T05:56:38.804Z,77.60
2018-07-26T05:59:07.924Z,77.60
2018-07-26T06:01:36.971Z,77.20
2018-07-26T06:04:06.441Z,77.20
2018-07-26T06:06:35.954Z,76.70
2018-07-26T06:09:08.925Z,76.90
2018-07-26T06:11:38.359Z,77.30
2018-07-26T06:14:07.815Z,77.30
2018-07-26T06:16:37.001Z,76.70
2018-07-26T06:19:06.362Z,76.50
2018-07-26T06:21:35.715Z,76.30
2018-07-26T06:24:04.892Z,76.60
2018-07-26T06:26:34.196Z,76.20
2018-07-26T06:29:03.426Z,76.00
2018-07-26T06:31:32.692Z,76.00
2018-07-26T06:34:02.400Z,75.60
2018-07-26T06:36:31.706Z,75.60
2018-07-26T06:39:00.923Z,75.70
2018-07-26T06:41:30.392Z,74.90
2018-07-26T06:44:00.313Z,74.10
2018-07-26T06:46:29.392Z,73.60
2018-07-26T06:48:58.714Z,73.30
2018-07-26T06:51:27.962Z,73.10
2018-07-26T06:53:57.513Z,73.30
2018-07-26T06:56:26.841Z,72.80
2018-07-26T06:58:56.259Z,72.70
2018-07-26T07:01:25.733Z,72.90
2018-07-26T07:03:55.126Z,72.40
2018-07-26T07:06:24.652Z,71.10
2018-07-26T07:08:54.004Z,69.80
2018-07-26T07:11:23.561Z,69.60
2018-07-26T07:13:53.051Z,69.20
2018-07-26T07:16:22.560Z,69.10
2018-07-26T07:18:52.060Z,68.30
2018-07-26T07:21:21.320Z,68.50
2018-07-26T07:23:50.565Z,67.80
2018-07-26T07:26:20.059Z,67.60
2018-07-26T07:28:50.808Z,67.20
2018-07-26T07:31:20.185Z,66.90
2018-07-26T07:33:49.764Z,66.70
2018-07-26T07:36:19.298Z,66.40
2018-07-26T07:38:48.921Z,65.20
2018-07-26T07:41:18.672Z,64.10
2018-07-26T07:43:48.222Z,63.50
2018-07-26T07:46:17.540Z,63.60
2018-07-26T07:48:46.554Z,63.70
2018-07-26T07:51:15.700Z,63.90
2018-07-26T07:53:44.821Z,63.90
2018-07-26T07:56:14.075Z,63.60
2018-07-26T07:58:43.274Z,63.30
2018-07-26T08:01:12.853Z,63.00
2018-07-26T08:03:42.240Z,63.50
2018-07-26T08:06:11.666Z,63.60
2018-07-26T08:08:40.986Z,63.50
2018-07-26T08:11:10.342Z,63.20
2018-07-26T08:13:39.833Z,62.30
2018-07-26T08:16:09.167Z,61.10
2018-07-26T08:18:38.674Z,60.90
2018-07-26T08:21:08.079Z,60.20
2018-07-26T08:23:37.278Z,59.50
2018-07-26T08:26:06.701Z,58.10
2018-07-26T08:28:35.984Z,58.00
2018-07-26T08:31:05.808Z,58.00
2018-07-26T08:36:04.066Z,56.90
2018-07-26T08:38:33.112Z,56.60
2018-07-26T08:41:02.900Z,56.00
2018-07-26T08:43:32.173Z,55.90
2018-07-26T08:46:01.769Z,55.30
2018-07-26T08:48:31.098Z,54.80
2018-07-26T08:51:01.292Z,54.80
2018-07-26T08:53:30.833Z,54.20
2018-07-26T08:56:00.162Z,53.80
2018-07-26T08:58:29.953Z,53.10
2018-07-26T09:03:28.157Z,52.80
2018-07-26T09:05:57.584Z,52.70
2018-07-26T09:08:26.988Z,52.70
2018-07-26T09:10:56.548Z,52.00
2018-07-26T09:13:25.947Z,51.50
2018-07-26T09:15:55.288Z,51.00
2018-07-26T09:18:24.757Z,50.80
2018-07-26T09:20:54.198Z,50.80
2018-07-26T09:23:23.414Z,49.90
2018-07-26T09:25:52.779Z,49.30
2018-07-26T09:28:22.091Z,49.50
2018-07-26T09:30:51.523Z,48.90
2018-07-26T09:33:21.136Z,48.50
2018-07-26T09:35:50.543Z,48.80
2018-07-26T09:38:20.025Z,46.20
2018-07-26T09:40:49.591Z,45.40
2018-07-26T09:43:19.191Z,45.30
2018-07-26T09:45:48.846Z,45.20
2018-07-26T09:48:18.583Z,44.80
2018-07-26T09:50:47.913Z,44.90
2018-07-26T09:53:17.280Z,44.40
2018-07-26T09:55:46.839Z,43.40
2018-07-26T09:58:16.172Z,43.20
2018-07-26T10:00:51.127Z,42.50
2018-07-26T10:03:20.429Z,41.80
2018-07-26T10:05:50.076Z,41.40
2018-07-26T10:08:19.579Z,41.10
2018-07-26T10:10:49.151Z,40.90
2018-07-26T10:13:18.653Z,40.80
2018-07-26T10:15:48.321Z,40.90
2018-07-26T10:18:17.843Z,40.50
2018-07-26T10:20:47.350Z,40.20
2018-07-26T10:23:17.022Z,39.80
2018-07-26T10:25:46.641Z,39.30
2018-07-26T10:28:17.163Z,38.80
2018-07-26T10:30:46.521Z,38.60
2018-07-26T10:33:16.184Z,38.10
2018-07-26T10:35:45.553Z,37.80
2018-07-26T10:38:15.315Z,37.70
2018-07-26T10:40:44.918Z,37.50
2018-07-26T10:43:14.715Z,37.00
2018-07-26T10:45:44.240Z,37.00
2018-07-26T10:48:13.942Z,36.20
2018-07-26T10:50:43.327Z,35.80
2018-07-26T10:53:12.912Z,35.70
2018-07-26T10:55:42.216Z,35.40
2018-07-26T10:58:11.616Z,35.50
2018-07-26T11:00:40.878Z,35.20
2018-07-26T11:03:10.337Z,36.00
2018-07-26T11:05:39.674Z,34.60
2018-07-26T11:08:09.205Z,34.60
2018-07-26T11:10:38.415Z,34.40
2018-07-26T11:13:07.738Z,33.70
2018-07-26T11:15:37.728Z,33.30
2018-07-26T11:18:07.008Z,33.40
2018-07-26T11:20:36.246Z,33.20
2018-07-26T11:23:05.580Z,32.90
2018-07-26T11:25:35.105Z,32.90
2018-07-26T11:28:04.678Z,33.10
2018-07-26T11:30:34.312Z,32.50
2018-07-26T11:33:03.678Z,33.30
2018-07-26T11:35:33.400Z,34.00
2018-07-26T11:38:02.870Z,34.30
2018-07-26T11:40:32.326Z,33.90
2018-07-26T11:43:01.882Z,32.20
2018-07-26T11:45:31.193Z,32.30
2018-07-26T11:48:00.530Z,32.00
2018-07-26T11:50:29.936Z,31.10
2018-07-26T11:52:59.586Z,31.30
2018-07-26T11:55:29.319Z,32.60
2018-07-26T11:57:58.734Z,31.30
2018-07-26T12:00:28.234Z,30.90
2018-07-26T12:02:57.528Z,30.30
2018-07-26T12:05:27.314Z,30.30
2018-07-26T12:07:56.947Z,30.40
2018-07-26T12:10:26.288Z,29.20
2018-07-26T12:12:55.958Z,29.30
2018-07-26T12:15:25.513Z,28.90
2018-07-26T12:17:54.932Z,28.90
2018-07-26T12:20:24.409Z,28.40
2018-07-26T12:22:53.901Z,28.70
2018-07-26T12:25:23.445Z,28.30
2018-07-26T12:27:52.631Z,28.30
2018-07-26T12:30:22.160Z,27.70
2018-07-26T12:32:51.572Z,27.80
2018-07-26T12:35:20.986Z,28.10
2018-07-26T12:37:50.589Z,27.70
2018-07-26T12:40:19.991Z,27.70
2018-07-26T12:42:49.493Z,27.80
2018-07-26T12:45:18.817Z,27.60
2018-07-26T12:47:48.292Z,27.20
2018-07-26T12:50:17.733Z,27.50
2018-07-26T12:52:47.743Z,27.10
2018-07-26T12:55:17.181Z,26.70
2018-07-26T13:00:16.329Z,26.10
2018-07-26T13:02:45.682Z,26.60
2018-07-26T13:05:14.888Z,26.20
2018-07-26T13:07:44.193Z,26.20
2018-07-26T13:10:13.848Z,26.20
2018-07-26T13:12:45.390Z,25.80
2018-07-26T13:15:14.933Z,25.60
2018-07-26T13:17:44.525Z,25.70
2018-07-26T13:20:14.207Z,26.00
2018-07-26T13:22:43.772Z,25.50
2018-07-26T13:25:13.510Z,25.50
2018-07-26T13:27:43.009Z,25.40
2018-07-26T13:30:12.536Z,25.70
2018-07-26T13:32:41.936Z,26.70
2018-07-26T13:35:11.223Z,27.50
2018-07-26T13:37:40.339Z,28.20
2018-07-26T13:40:09.681Z,28.50
2018-07-26T13:45:08.856Z,29.30
2018-07-26T13:47:38.526Z,29.50
2018-07-26T13:50:07.992Z,29.50
2018-07-26T13:52:37.338Z,29.60
2018-07-26T13:55:07.270Z,28.60
2018-07-26T13:57:36.755Z,28.30
2018-07-26T14:00:06.801Z,27.50
2018-07-26T14:02:36.107Z,26.80
2018-07-26T14:05:05.677Z,26.30
2018-07-26T14:07:35.217Z,26.60
2018-07-26T14:10:05.658Z,27.10
2018-07-26T14:12:34.900Z,27.60
2018-07-26T14:15:04.482Z,27.90
2018-07-26T14:17:33.857Z,27.30
2018-07-26T14:20:03.067Z,27.70
2018-07-26T14:22:32.263Z,28.20
2018-07-26T14:25:01.794Z,28.20
2018-07-26T14:27:31.173Z,28.60
2018-07-26T14:30:00.598Z,29.10
2018-07-26T14:32:29.688Z,29.40
2018-07-26T14:34:58.750Z,29.20
2018-07-26T14:37:28.678Z,29.60
2018-07-26T14:39:58.016Z,29.30
2018-07-26T14:42:27.604Z,29.20
2018-07-26T14:44:56.941Z,29.30
2018-07-26T14:47:26.134Z,29.50
2018-07-26T14:49:55.202Z,29.30
2018-07-26T14:52:24.726Z,29.40
2018-07-26T14:54:54.179Z,29.20
2018-07-26T14:57:23.727Z,29.70
2018-07-26T14:59:53.143Z,29.50
2018-07-26T15:02:22.689Z,29.70
2018-07-26T15:04:51.865Z,29.80
2018-07-26T15:07:22.011Z,29.60
2018-07-26T15:09:51.247Z,29.70
2018-07-26T15:12:20.578Z,29.30
2018-07-26T15:14:49.757Z,28.90
2018-07-26T15:17:18.995Z,28.40
2018-07-26T15:19:48.403Z,28.60
2018-07-26T15:22:17.696Z,28.00
2018-07-26T15:24:47.665Z,27.40
2018-07-26T15:27:16.638Z,26.20
2018-07-26T15:29:46.186Z,25.60
2018-07-26T15:32:15.433Z,25.30
2018-07-26T15:34:44.402Z,24.60
2018-07-26T15:37:13.757Z,24.50
2018-07-26T15:39:43.185Z,24.30
2018-07-26T15:42:12.394Z,23.50
2018-07-26T15:44:41.698Z,23.40
2018-07-26T15:47:10.830Z,23.60
2018-07-26T15:49:40.070Z,23.70
2018-07-26T15:52:09.342Z,23.10
2018-07-26T15:54:38.584Z,23.00
2018-07-26T15:57:08.182Z,23.30
2018-07-26T15:59:37.522Z,23.40
2018-07-26T16:02:07.073Z,23.40
2018-07-26T16:04:36.272Z,23.30
2018-07-26T16:07:05.719Z,23.60
2018-07-26T16:09:34.961Z,23.80
2018-07-26T16:12:04.062Z,23.30
2018-07-26T16:14:33.321Z,23.40
2018-07-26T16:17:02.570Z,23.70
2018-07-26T16:19:31.585Z,23.60
2018-07-26T16:22:00.980Z,23.90
2018-07-26T16:24:30.177Z,24.20
2018-07-26T16:26:59.188Z,24.90
2018-07-26T16:29:28.283Z,25.30
2018-07-26T16:31:57.482Z,25.40
2018-07-26T16:34:26.544Z,25.60
2018-07-26T16:36:55.610Z,25.60
2018-07-26T16:39:24.579Z,25.70
2018-07-26T16:44:22.431Z,26.00
2018-07-26T16:46:51.625Z,26.30
2018-07-26T16:49:20.837Z,28.10
2018-07-26T16:51:52.546Z,29.00
2018-07-26T16:54:21.500Z,29.60
2018-07-26T16:56:50.601Z,30.20
2018-07-26T16:59:19.650Z,30.70
2018-07-26T17:01:48.821Z,31.40
2018-07-26T17:04:17.844Z,32.00
2018-07-26T17:06:46.942Z,32.50
2018-07-26T17:09:16.046Z,32.30
2018-07-26T17:11:45.816Z,33.10
2018-07-26T17:14:15.059Z,33.50
2018-07-26T17:16:44.183Z,33.80
2018-07-26T17:19:13.200Z,34.00
2018-07-26T17:21:42.373Z,34.30
2018-07-26T17:24:11.428Z,34.40
2018-07-26T17:26:40.600Z,34.20
2018-07-26T17:29:09.675Z,34.70
2018-07-26T17:31:38.787Z,35.00
2018-07-26T17:34:07.841Z,35.40
2018-07-26T17:36:36.843Z,35.40
2018-07-26T17:39:08.669Z,35.60
2018-07-26T17:41:37.795Z,35.80
2018-07-26T17:44:06.959Z,36.40
2018-07-26T17:46:36.278Z,36.20
2018-07-26T17:49:05.699Z,36.50
2018-07-26T17:51:34.722Z,36.70
2018-07-26T17:54:03.677Z,36.90
2018-07-26T17:56:33.112Z,37.30
2018-07-26T17:59:02.246Z,37.30
2018-07-26T18:01:31.372Z,37.50
2018-07-26T18:04:00.448Z,37.90
2018-07-26T18:06:29.525Z,38.00
2018-07-26T18:08:58.500Z,38.20
2018-07-26T18:11:27.525Z,38.30
2018-07-26T18:13:56.613Z,38.70
2018-07-26T18:16:25.725Z,38.70
2018-07-26T18:18:54.825Z,38.90
2018-07-26T18:21:23.935Z,39.00
2018-07-26T18:23:52.980Z,39.20
2018-07-26T18:26:21.933Z,39.30
2018-07-26T18:28:50.889Z,39.40
2018-07-26T18:31:20.081Z,39.90
2018-07-26T18:33:49.018Z,39.70
2018-07-26T18:36:18.050Z,40.00
2018-07-26T18:38:47.135Z,40.00
2018-07-26T18:41:16.269Z,40.00
2018-07-26T18:43:45.387Z,39.80
2018-07-26T18:46:14.288Z,40.10
2018-07-26T18:48:43.261Z,40.70
2018-07-26T18:51:12.209Z,41.20
2018-07-26T18:53:41.308Z,41.50
2018-07-26T18:56:10.423Z,41.50
2018-07-26T18:58:42.579Z,42.00
2018-07-26T19:01:11.226Z,42.40
2018-07-26T19:03:40.401Z,42.60
2018-07-26T19:06:09.297Z,42.90
2018-07-26T19:08:38.306Z,43.80
2018-07-26T19:11:07.273Z,44.10
2018-07-26T19:13:36.308Z,44.70
2018-07-26T19:16:06.187Z,45.20
2018-07-26T19:18:35.321Z,45.40
2018-07-26T19:21:04.363Z,45.80
2018-07-26T19:23:33.336Z,45.60
2018-07-26T19:26:02.449Z,45.40
2018-07-26T19:28:31.529Z,45.60
2018-07-26T19:31:00.594Z,46.00
2018-07-26T19:33:30.279Z,46.70
2018-07-26T19:35:59.365Z,47.20
2018-07-26T19:38:28.366Z,47.10
2018-07-26T19:40:57.371Z,47.40
2018-07-26T19:43:26.385Z,47.10
2018-07-26T19:45:55.624Z,47.60
2018-07-26T19:48:24.591Z,48.10
2018-07-26T19:50:53.773Z,48.30
2018-07-26T19:53:22.904Z,48.60
2018-07-26T19:55:58.285Z,49.20
2018-07-26T19:58:27.388Z,49.60
2018-07-26T20:00:56.466Z,49.80
2018-07-26T20:03:25.585Z,50.00
2018-07-26T20:05:54.671Z,50.50
2018-07-26T20:08:24.366Z,51.00
2018-07-26T20:10:53.507Z,51.20
2018-07-26T20:13:22.471Z,50.90
2018-07-26T20:15:51.734Z,50.80
2018-07-26T20:18:20.834Z,51.20
2018-07-26T20:20:49.836Z,51.60
2018-07-26T20:23:19.014Z,51.70
2018-07-26T20:25:47.963Z,52.00
2018-07-26T20:28:17.412Z,52.30
2018-07-26T20:30:46.396Z,52.40
2018-07-26T20:33:16.220Z,52.60
2018-07-26T20:35:45.215Z,53.10
2018-07-26T20:38:14.372Z,53.70
2018-07-26T20:40:43.449Z,53.70
2018-07-26T20:43:12.570Z,54.20
2018-07-26T20:45:41.621Z,54.50
2018-07-26T20:48:10.737Z,54.80
2018-07-26T20:50:39.832Z,55.20
2018-07-26T20:53:08.823Z,55.60
2018-07-26T20:55:37.750Z,55.80
2018-07-26T20:58:06.897Z,55.30
2018-07-26T21:00:35.963Z,55.40
2018-07-26T21:03:05.087Z,55.40
2018-07-26T21:05:34.126Z,55.50
2018-07-26T21:08:03.300Z,55.60
2018-07-26T21:10:32.264Z,55.70
2018-07-26T21:13:01.252Z,55.90
2018-07-26T21:15:30.203Z,56.10
2018-07-26T21:17:59.325Z,56.30
2018-07-26T21:20:28.349Z,56.50
2018-07-26T21:22:57.428Z,56.50
2018-07-26T21:25:26.517Z,56.90
2018-07-26T21:27:55.596Z,56.90
2018-07-26T21:30:24.608Z,56.40
2018-07-26T21:32:53.609Z,56.70
2018-07-26T21:35:22.753Z,57.20
2018-07-26T21:37:51.772Z,57.10
2018-07-26T21:40:20.765Z,57.40
2018-07-26T21:42:49.796Z,57.70
2018-07-26T21:45:18.918Z,57.90
2018-07-26T21:47:47.951Z,57.90
2018-07-26T21:50:17.077Z,58.30
2018-07-26T21:52:46.154Z,58.10
2018-07-26T21:55:15.205Z,58.30
2018-07-26T21:57:44.343Z,58.60
2018-07-26T22:00:13.507Z,58.80
2018-07-26T22:02:42.541Z,58.60
2018-07-26T22:05:11.529Z,58.30
2018-07-26T22:07:40.721Z,58.30
2018-07-26T22:10:09.831Z,58.30
2018-07-26T22:12:38.909Z,58.90
2018-07-26T22:15:08.005Z,59.40
2018-07-26T22:17:37.254Z,59.70
2018-07-26T22:20:06.525Z,59.90
2018-07-26T22:22:36.389Z,60.70
2018-07-26T22:25:05.648Z,61.20
2018-07-26T22:27:34.590Z,61.20
2018-07-26T22:30:04.052Z,61.20
2018-07-26T22:32:32.998Z,61.50
2018-07-26T22:35:01.995Z,62.00
2018-07-26T22:37:30.893Z,62.50
2018-07-26T22:39:59.972Z,63.20
2018-07-26T22:42:28.953Z,62.90
2018-07-26T22:44:57.914Z,63.40
2018-07-26T22:49:55.778Z,64.30
2018-07-26T22:52:24.795Z,64.50
2018-07-26T22:54:53.764Z,64.90
2018-07-26T22:57:22.743Z,64.90
2018-07-26T22:59:51.918Z,65.30
2018-07-26T23:02:21.028Z,65.70
2018-07-26T23:04:50.160Z,66.10
2018-07-26T23:07:19.194Z,66.40
2018-07-26T23:09:48.308Z,66.60
2018-07-26T23:12:17.369Z,67.00
2018-07-26T23:14:46.518Z,67.30
2018-07-26T23:17:15.531Z,67.60
2018-07-26T23:19:44.738Z,68.00
2018-07-26T23:22:13.725Z,68.30
2018-07-26T23:24:42.901Z,68.50
2018-07-26T23:27:11.838Z,68.40
2018-07-26T23:29:40.848Z,67.40
2018-07-26T23:32:12.684Z,66.30
2018-07-26T23:34:41.658Z,67.10
2018-07-26T23:37:10.779Z,67.40
2018-07-26T23:39:39.897Z,67.10
2018-07-26T23:42:08.822Z,66.70
2018-07-26T23:44:37.860Z,66.70
2018-07-26T23:47:07.616Z,66.60
2018-07-26T23:49:36.574Z,67.20
2018-07-26T23:52:05.568Z,67.80
2018-07-26T23:54:34.662Z,68.40
2018-07-26T23:57:03.744Z,68.70
2018-07-26T23:59:32.710Z,69.30
